sensor_id;sensor_type;location;lat;lon;timestamp;P1;P2;P0
70520;PMS5003;58442;52.716;23.560;2022-10-23T00:00:37;20;19;9
70520;PMS5003;58442;52.716;23.560;2022-10-23T00:02:39;17;17;10
70520;PMS5003;58442;52.716;23.560;2022-10-23T00:04:51;21;18;10
70520;PMS5003;58442;52.716;23.560;2022-10-23T00:06:52;22;19;9
70520;PMS5003;58442;52.716;23.560;2022-10-23T00:08:54;10;10;7
70520;PMS5003;58442;52.716;23.560;2022-10-23T00:10:55;16;15;10
70520;PMS5003;58442;52.716;23.560;2022-10-23T00:13:03;18;18;12
70520;PMS5003;58442;52.716;23.560;2022-10-23T00:15:04;14;14;7
70520;PMS5003;58442;52.716;23.560;2022-10-23T00:17:06;23;20;11
70520;PMS5003;58442;52.716;23.560;2022-10-23T00:19:09;16;16;10
70520;PMS5003;58442;52.716;23.560;2022-10-23T00:21:18;19;19;10
70520;PMS5003;58442;52.716;23.560;2022-10-23T00:23:19;17;17;9
70520;PMS5003;58442;52.716;23.560;2022-10-23T00:25:20;20;18;10
70520;PMS5003;58442;52.716;23.560;2022-10-23T00:27:22;17;14;7
70520;PMS5003;58442;52.716;23.560;2022-10-23T00:29:32;13;13;8
70520;PMS5003;58442;52.716;23.560;2022-10-23T00:31:34;13;13;7
70520;PMS5003;58442;52.716;23.560;2022-10-23T00:33:35;16;16;10
70520;PMS5003;58442;52.716;23.560;2022-10-23T00:35:40;11;11;8
70520;PMS5003;58442;52.716;23.560;2022-10-23T00:37:47;15;15;7
70520;PMS5003;58442;52.716;23.560;2022-10-23T00:39:48;13;13;9
70520;PMS5003;58442;52.716;23.560;2022-10-23T00:41:50;12;12;5
70520;PMS5003;58442;52.716;23.560;2022-10-23T00:43:55;9;8;5
70520;PMS5003;58442;52.716;23.560;2022-10-23T00:46:03;13;13;7
70520;PMS5003;58442;52.716;23.560;2022-10-23T00:48:04;17;15;5
70520;PMS5003;58442;52.716;23.560;2022-10-23T00:50:06;13;13;8
70520;PMS5003;58442;52.716;23.560;2022-10-23T00:52:08;12;12;7
70520;PMS5003;58442;52.716;23.560;2022-10-23T00:54:19;13;13;7
70520;PMS5003;58442;52.716;23.560;2022-10-23T00:56:25;11;11;7
70520;PMS5003;58442;52.716;23.560;2022-10-23T00:58:26;9;9;5
70520;PMS5003;58442;52.716;23.560;2022-10-23T01:00:29;11;11;4
70520;PMS5003;58442;52.716;23.560;2022-10-23T01:02:36;7;7;6
70520;PMS5003;58442;52.716;23.560;2022-10-23T01:04:38;10;9;6
70520;PMS5003;58442;52.716;23.560;2022-10-23T01:11:11;8;8;7
70520;PMS5003;58442;52.716;23.560;2022-10-23T01:17:52;8;8;6
70520;PMS5003;58442;52.716;23.560;2022-10-23T01:24:44;11;11;7
70520;PMS5003;58442;52.716;23.560;2022-10-23T01:26:49;11;11;7
70520;PMS5003;58442;52.716;23.560;2022-10-23T01:31:10;11;11;8
70520;PMS5003;58442;52.716;23.560;2022-10-23T01:33:22;9;9;7
70520;PMS5003;58442;52.716;23.560;2022-10-23T01:35:30;7;7;6
70520;PMS5003;58442;52.716;23.560;2022-10-23T01:37:41;11;11;7
70520;PMS5003;58442;52.716;23.560;2022-10-23T01:39:51;9;9;5
70520;PMS5003;58442;52.716;23.560;2022-10-23T01:41:59;10;10;7
70520;PMS5003;58442;52.716;23.560;2022-10-23T01:44:15;11;11;7
70520;PMS5003;58442;52.716;23.560;2022-10-23T01:46:24;10;10;8
70520;PMS5003;58442;52.716;23.560;2022-10-23T01:48:28;11;11;7
70520;PMS5003;58442;52.716;23.560;2022-10-23T01:50:31;11;11;8
70520;PMS5003;58442;52.716;23.560;2022-10-23T01:52:34;10;10;8
70520;PMS5003;58442;52.716;23.560;2022-10-23T01:54:40;11;11;7
70520;PMS5003;58442;52.716;23.560;2022-10-23T01:56:45;9;9;8
70520;PMS5003;58442;52.716;23.560;2022-10-23T01:58:50;12;12;9
70520;PMS5003;58442;52.716;23.560;2022-10-23T02:00:54;11;11;7
70520;PMS5003;58442;52.716;23.560;2022-10-23T02:02:59;10;10;8
70520;PMS5003;58442;52.716;23.560;2022-10-23T02:07:18;12;12;8
70520;PMS5003;58442;52.716;23.560;2022-10-23T02:09:19;13;13;8
70520;PMS5003;58442;52.716;23.560;2022-10-23T02:11:22;13;13;9
70520;PMS5003;58442;52.716;23.560;2022-10-23T02:13:32;12;12;8
70520;PMS5003;58442;52.716;23.560;2022-10-23T02:15:39;12;12;9
70520;PMS5003;58442;52.716;23.560;2022-10-23T02:20:15;12;12;9
70520;PMS5003;58442;52.716;23.560;2022-10-23T02:24:32;10;10;8
70520;PMS5003;58442;52.716;23.560;2022-10-23T02:28:56;11;11;8
70520;PMS5003;58442;52.716;23.560;2022-10-23T02:31:01;10;10;7
70520;PMS5003;58442;52.716;23.560;2022-10-23T02:33:05;10;10;7
70520;PMS5003;58442;52.716;23.560;2022-10-23T02:35:08;10;10;7
70520;PMS5003;58442;52.716;23.560;2022-10-23T02:37:10;12;12;8
70520;PMS5003;58442;52.716;23.560;2022-10-23T02:39:11;9;9;7
70520;PMS5003;58442;52.716;23.560;2022-10-23T02:41:15;9;9;6
70520;PMS5003;58442;52.716;23.560;2022-10-23T02:43:25;11;10;6
70520;PMS5003;58442;52.716;23.560;2022-10-23T02:45:45;10;10;8
70520;PMS5003;58442;52.716;23.560;2022-10-23T02:48:06;10;10;8
70520;PMS5003;58442;52.716;23.560;2022-10-23T02:55:18;10;10;8
70520;PMS5003;58442;52.716;23.560;2022-10-23T02:57:30;14;12;9
70520;PMS5003;58442;52.716;23.560;2022-10-23T03:01:51;10;9;7
70520;PMS5003;58442;52.716;23.560;2022-10-23T03:03:58;9;9;6
70520;PMS5003;58442;52.716;23.560;2022-10-23T03:06:02;14;14;8
70520;PMS5003;58442;52.716;23.560;2022-10-23T03:08:13;12;12;6
70520;PMS5003;58442;52.716;23.560;2022-10-23T03:10:14;10;10;7
70520;PMS5003;58442;52.716;23.560;2022-10-23T03:12:16;10;10;7
70520;PMS5003;58442;52.716;23.560;2022-10-23T03:14:17;12;12;9
70520;PMS5003;58442;52.716;23.560;2022-10-23T03:16:27;15;13;8
70520;PMS5003;58442;52.716;23.560;2022-10-23T03:18:29;12;12;9
70520;PMS5003;58442;52.716;23.560;2022-10-23T03:20:30;12;12;9
70520;PMS5003;58442;52.716;23.560;2022-10-23T03:22:31;12;12;9
70520;PMS5003;58442;52.716;23.560;2022-10-23T03:24:42;11;11;8
70520;PMS5003;58442;52.716;23.560;2022-10-23T03:26:43;11;11;9
70520;PMS5003;58442;52.716;23.560;2022-10-23T03:28:45;10;10;8
70520;PMS5003;58442;52.716;23.560;2022-10-23T03:30:46;13;13;9
70520;PMS5003;58442;52.716;23.560;2022-10-23T03:32:57;9;9;9
70520;PMS5003;58442;52.716;23.560;2022-10-23T03:34:58;14;14;9
70520;PMS5003;58442;52.716;23.560;2022-10-23T03:37:00;9;9;8
70520;PMS5003;58442;52.716;23.560;2022-10-23T03:39:01;11;11;8
70520;PMS5003;58442;52.716;23.560;2022-10-23T03:41:12;15;15;11
70520;PMS5003;58442;52.716;23.560;2022-10-23T03:43:13;13;13;10
70520;PMS5003;58442;52.716;23.560;2022-10-23T03:45:14;12;12;9
70520;PMS5003;58442;52.716;23.560;2022-10-23T03:47:16;12;12;9
70520;PMS5003;58442;52.716;23.560;2022-10-23T03:49:27;8;8;6
70520;PMS5003;58442;52.716;23.560;2022-10-23T03:51:28;15;15;11
70520;PMS5003;58442;52.716;23.560;2022-10-23T03:53:29;11;11;9
70520;PMS5003;58442;52.716;23.560;2022-10-23T03:55:30;13;13;8
70520;PMS5003;58442;52.716;23.560;2022-10-23T03:57:41;14;14;9
70520;PMS5003;58442;52.716;23.560;2022-10-23T03:59:43;16;16;8
70520;PMS5003;58442;52.716;23.560;2022-10-23T04:01:44;18;13;8
70520;PMS5003;58442;52.716;23.560;2022-10-23T04:03:45;13;13;9
70520;PMS5003;58442;52.716;23.560;2022-10-23T04:05:56;11;11;10
70520;PMS5003;58442;52.716;23.560;2022-10-23T04:07:57;11;11;8
70520;PMS5003;58442;52.716;23.560;2022-10-23T04:09:59;14;14;9
70520;PMS5003;58442;52.716;23.560;2022-10-23T04:12:00;16;15;9
70520;PMS5003;58442;52.716;23.560;2022-10-23T04:14:11;8;8;6
70520;PMS5003;58442;52.716;23.560;2022-10-23T04:16:14;13;12;7
70520;PMS5003;58442;52.716;23.560;2022-10-23T04:18:15;12;12;8
70520;PMS5003;58442;52.716;23.560;2022-10-23T04:20:17;11;11;8
70520;PMS5003;58442;52.716;23.560;2022-10-23T04:22:26;15;15;11
70520;PMS5003;58442;52.716;23.560;2022-10-23T04:24:27;10;10;8
70520;PMS5003;58442;52.716;23.560;2022-10-23T04:26:28;7;7;3
70520;PMS5003;58442;52.716;23.560;2022-10-23T04:28:30;12;12;9
70520;PMS5003;58442;52.716;23.560;2022-10-23T04:30:41;10;10;7
70520;PMS5003;58442;52.716;23.560;2022-10-23T04:32:42;12;12;9
70520;PMS5003;58442;52.716;23.560;2022-10-23T04:34:43;15;15;9
70520;PMS5003;58442;52.716;23.560;2022-10-23T04:36:44;12;12;8
70520;PMS5003;58442;52.716;23.560;2022-10-23T04:38:56;14;14;8
70520;PMS5003;58442;52.716;23.560;2022-10-23T04:40:57;14;14;8
70520;PMS5003;58442;52.716;23.560;2022-10-23T04:42:58;16;15;8
70520;PMS5003;58442;52.716;23.560;2022-10-23T04:44:59;17;17;9
70520;PMS5003;58442;52.716;23.560;2022-10-23T04:47:10;15;15;10
70520;PMS5003;58442;52.716;23.560;2022-10-23T04:49:12;11;11;7
70520;PMS5003;58442;52.716;23.560;2022-10-23T04:51:13;12;12;9
70520;PMS5003;58442;52.716;23.560;2022-10-23T04:53:14;14;14;10
70520;PMS5003;58442;52.716;23.560;2022-10-23T04:55:25;9;8;5
70520;PMS5003;58442;52.716;23.560;2022-10-23T04:57:26;14;13;8
70520;PMS5003;58442;52.716;23.560;2022-10-23T04:59:28;15;15;9
70520;PMS5003;58442;52.716;23.560;2022-10-23T05:01:29;13;12;7
70520;PMS5003;58442;52.716;23.560;2022-10-23T05:03:40;16;16;9
70520;PMS5003;58442;52.716;23.560;2022-10-23T05:05:41;17;15;10
70520;PMS5003;58442;52.716;23.560;2022-10-23T05:07:43;13;12;9
70520;PMS5003;58442;52.716;23.560;2022-10-23T05:09:44;12;12;11
70520;PMS5003;58442;52.716;23.560;2022-10-23T05:11:55;18;18;11
70520;PMS5003;58442;52.716;23.560;2022-10-23T05:13:56;18;18;12
70520;PMS5003;58442;52.716;23.560;2022-10-23T05:15:57;14;14;9
70520;PMS5003;58442;52.716;23.560;2022-10-23T05:18:01;18;17;11
70520;PMS5003;58442;52.716;23.560;2022-10-23T05:20:20;16;16;10
70520;PMS5003;58442;52.716;23.560;2022-10-23T05:22:20;12;12;8
70520;PMS5003;58442;52.716;23.560;2022-10-23T05:24:25;38;34;18
70520;PMS5003;58442;52.716;23.560;2022-10-23T05:26:27;22;21;13
70520;PMS5003;58442;52.716;23.560;2022-10-23T05:28:29;22;22;11
70520;PMS5003;58442;52.716;23.560;2022-10-23T05:30:31;16;16;8
70520;PMS5003;58442;52.716;23.560;2022-10-23T05:32:33;15;15;10
70520;PMS5003;58442;52.716;23.560;2022-10-23T05:34:36;22;21;12
70520;PMS5003;58442;52.716;23.560;2022-10-23T05:36:44;42;35;21
70520;PMS5003;58442;52.716;23.560;2022-10-23T05:38:46;29;28;17
70520;PMS5003;58442;52.716;23.560;2022-10-23T05:40:49;19;19;14
70520;PMS5003;58442;52.716;23.560;2022-10-23T05:42:51;26;25;16
70520;PMS5003;58442;52.716;23.560;2022-10-23T05:44:59;23;23;14
70520;PMS5003;58442;52.716;23.560;2022-10-23T05:47:00;32;31;15
70520;PMS5003;58442;52.716;23.560;2022-10-23T05:49:01;56;46;26
70520;PMS5003;58442;52.716;23.560;2022-10-23T05:51:03;42;36;19
70520;PMS5003;58442;52.716;23.560;2022-10-23T05:53:14;29;27;14
70520;PMS5003;58442;52.716;23.560;2022-10-23T05:55:15;48;36;19
70520;PMS5003;58442;52.716;23.560;2022-10-23T05:57:17;34;32;15
70520;PMS5003;58442;52.716;23.560;2022-10-23T05:59:18;24;24;12
70520;PMS5003;58442;52.716;23.560;2022-10-23T06:01:28;20;20;13
70520;PMS5003;58442;52.716;23.560;2022-10-23T06:03:30;18;17;12
70520;PMS5003;58442;52.716;23.560;2022-10-23T06:05:31;27;23;12
70520;PMS5003;58442;52.716;23.560;2022-10-23T06:07:32;16;15;10
70520;PMS5003;58442;52.716;23.560;2022-10-23T06:09:43;19;19;10
70520;PMS5003;58442;52.716;23.560;2022-10-23T06:11:45;19;17;10
70520;PMS5003;58442;52.716;23.560;2022-10-23T06:13:47;19;19;11
70520;PMS5003;58442;52.716;23.560;2022-10-23T06:15:48;16;15;10
70520;PMS5003;58442;52.716;23.560;2022-10-23T06:18:01;82;70;36
70520;PMS5003;58442;52.716;23.560;2022-10-23T06:20:04;65;52;29
70520;PMS5003;58442;52.716;23.560;2022-10-23T06:22:06;55;45;27
70520;PMS5003;58442;52.716;23.560;2022-10-23T06:24:07;65;52;33
70520;PMS5003;58442;52.716;23.560;2022-10-23T06:26:14;63;51;31
70520;PMS5003;58442;52.716;23.560;2022-10-23T06:28:17;63;48;32
70520;PMS5003;58442;52.716;23.560;2022-10-23T06:30:18;30;29;18
70520;PMS5003;58442;52.716;23.560;2022-10-23T06:32:19;48;41;25
70520;PMS5003;58442;52.716;23.560;2022-10-23T06:34:28;51;42;27
70520;PMS5003;58442;52.716;23.560;2022-10-23T06:36:30;67;55;39
70520;PMS5003;58442;52.716;23.560;2022-10-23T06:38:31;36;29;20
70520;PMS5003;58442;52.716;23.560;2022-10-23T06:40:39;62;50;30
70520;PMS5003;58442;52.716;23.560;2022-10-23T06:42:43;65;54;32
70520;PMS5003;58442;52.716;23.560;2022-10-23T06:44:44;45;38;23
70520;PMS5003;58442;52.716;23.560;2022-10-23T06:46:45;58;48;30
70520;PMS5003;58442;52.716;23.560;2022-10-23T06:48:47;53;44;29
70520;PMS5003;58442;52.716;23.560;2022-10-23T06:50:58;51;43;28
70520;PMS5003;58442;52.716;23.560;2022-10-23T06:53:04;46;38;23
70520;PMS5003;58442;52.716;23.560;2022-10-23T06:55:06;25;25;15
70520;PMS5003;58442;52.716;23.560;2022-10-23T06:57:08;76;58;34
70520;PMS5003;58442;52.716;23.560;2022-10-23T06:59:13;106;84;37
70520;PMS5003;58442;52.716;23.560;2022-10-23T07:01:15;60;48;26
70520;PMS5003;58442;52.716;23.560;2022-10-23T07:03:16;50;40;23
70520;PMS5003;58442;52.716;23.560;2022-10-23T07:05:17;46;39;22
70520;PMS5003;58442;52.716;23.560;2022-10-23T07:07:28;35;28;14
70520;PMS5003;58442;52.716;23.560;2022-10-23T07:09:30;42;36;23
70520;PMS5003;58442;52.716;23.560;2022-10-23T07:11:31;33;31;18
70520;PMS5003;58442;52.716;23.560;2022-10-23T07:13:32;33;31;18
70520;PMS5003;58442;52.716;23.560;2022-10-23T07:15:43;32;30;15
70520;PMS5003;58442;52.716;23.560;2022-10-23T07:17:44;19;19;12
70520;PMS5003;58442;52.716;23.560;2022-10-23T07:19:45;32;31;19
70520;PMS5003;58442;52.716;23.560;2022-10-23T07:21:47;30;27;13
70520;PMS5003;58442;52.716;23.560;2022-10-23T07:23:57;29;28;15
70520;PMS5003;58442;52.716;23.560;2022-10-23T07:26:17;41;33;21
70520;PMS5003;58442;52.716;23.560;2022-10-23T07:28:09;26;24;15
70520;PMS5003;58442;52.716;23.560;2022-10-23T07:30:11;41;35;24
70520;PMS5003;58442;52.716;23.560;2022-10-23T07:32:13;41;36;22
70520;PMS5003;58442;52.716;23.560;2022-10-23T07:34:15;34;32;20
70520;PMS5003;58442;52.716;23.560;2022-10-23T07:36:16;23;23;13
70520;PMS5003;58442;52.716;23.560;2022-10-23T07:38:18;22;22;15
70520;PMS5003;58442;52.716;23.560;2022-10-23T07:40:28;28;26;17
70520;PMS5003;58442;52.716;23.560;2022-10-23T07:42:30;28;28;20
70520;PMS5003;58442;52.716;23.560;2022-10-23T07:44:31;23;21;14
70520;PMS5003;58442;52.716;23.560;2022-10-23T07:46:33;28;28;18
70520;PMS5003;58442;52.716;23.560;2022-10-23T07:48:43;22;20;10
70520;PMS5003;58442;52.716;23.560;2022-10-23T07:50:44;30;29;20
70520;PMS5003;58442;52.716;23.560;2022-10-23T07:52:46;33;31;20
70520;PMS5003;58442;52.716;23.560;2022-10-23T07:54:49;27;27;16
70520;PMS5003;58442;52.716;23.560;2022-10-23T07:56:59;21;21;14
70520;PMS5003;58442;52.716;23.560;2022-10-23T07:59:00;16;16;11
70520;PMS5003;58442;52.716;23.560;2022-10-23T08:01:02;27;24;13
70520;PMS5003;58442;52.716;23.560;2022-10-23T08:03:09;35;30;18
70520;PMS5003;58442;52.716;23.560;2022-10-23T08:05:13;47;40;21
70520;PMS5003;58442;52.716;23.560;2022-10-23T08:07:18;24;24;14
70520;PMS5003;58442;52.716;23.560;2022-10-23T08:09:19;26;26;21
70520;PMS5003;58442;52.716;23.560;2022-10-23T08:11:22;30;29;15
70520;PMS5003;58442;52.716;23.560;2022-10-23T08:13:30;18;17;10
70520;PMS5003;58442;52.716;23.560;2022-10-23T08:15:31;16;16;9
70520;PMS5003;58442;52.716;23.560;2022-10-23T08:17:33;25;22;11
70520;PMS5003;58442;52.716;23.560;2022-10-23T08:19:34;42;36;20
70520;PMS5003;58442;52.716;23.560;2022-10-23T08:21:43;53;43;23
70520;PMS5003;58442;52.716;23.560;2022-10-23T08:23:44;25;25;15
70520;PMS5003;58442;52.716;23.560;2022-10-23T08:25:46;31;29;17
70520;PMS5003;58442;52.716;23.560;2022-10-23T08:27:47;24;24;12
70520;PMS5003;58442;52.716;23.560;2022-10-23T08:29:58;41;34;20
70520;PMS5003;58442;52.716;23.560;2022-10-23T08:31:59;52;40;24
70520;PMS5003;58442;52.716;23.560;2022-10-23T08:34:00;31;30;16
70520;PMS5003;58442;52.716;23.560;2022-10-23T08:36:02;26;25;16
70520;PMS5003;58442;52.716;23.560;2022-10-23T08:38:13;57;45;25
70520;PMS5003;58442;52.716;23.560;2022-10-23T08:40:15;21;21;11
70520;PMS5003;58442;52.716;23.560;2022-10-23T08:42:22;36;32;18
70520;PMS5003;58442;52.716;23.560;2022-10-23T08:46:41;41;35;22
70520;PMS5003;58442;52.716;23.560;2022-10-23T08:48:59;17;17;12
70520;PMS5003;58442;52.716;23.560;2022-10-23T08:51:24;21;20;12
70520;PMS5003;58442;52.716;23.560;2022-10-23T08:53:23;59;46;28
70520;PMS5003;58442;52.716;23.560;2022-10-23T08:57:37;31;30;17
70520;PMS5003;58442;52.716;23.560;2022-10-23T08:59:47;30;29;18
70520;PMS5003;58442;52.716;23.560;2022-10-23T09:03:05;34;27;17
70520;PMS5003;58442;52.716;23.560;2022-10-23T09:05:11;30;29;19
70520;PMS5003;58442;52.716;23.560;2022-10-23T09:11:52;19;17;10
70520;PMS5003;58442;52.716;23.560;2022-10-23T09:18:46;18;18;12
70520;PMS5003;58442;52.716;23.560;2022-10-23T09:20:49;21;21;10
70520;PMS5003;58442;52.716;23.560;2022-10-23T09:23:38;15;15;9
70520;PMS5003;58442;52.716;23.560;2022-10-23T09:25:10;31;29;15
70520;PMS5003;58442;52.716;23.560;2022-10-23T09:27:16;21;21;13
70520;PMS5003;58442;52.716;23.560;2022-10-23T09:29:23;37;33;19
70520;PMS5003;58442;52.716;23.560;2022-10-23T09:31:29;31;30;17
70520;PMS5003;58442;52.716;23.560;2022-10-23T09:33:31;15;14;8
70520;PMS5003;58442;52.716;23.560;2022-10-23T09:35:36;11;11;7
70520;PMS5003;58442;52.716;23.560;2022-10-23T09:37:43;18;18;11
70520;PMS5003;58442;52.716;23.560;2022-10-23T09:42:20;17;17;11
70520;PMS5003;58442;52.716;23.560;2022-10-23T09:44:28;23;22;15
70520;PMS5003;58442;52.716;23.560;2022-10-23T09:48:39;13;13;9
70520;PMS5003;58442;52.716;23.560;2022-10-23T09:52:56;16;16;11
70520;PMS5003;58442;52.716;23.560;2022-10-23T09:54:59;17;17;10
70520;PMS5003;58442;52.716;23.560;2022-10-23T09:57:48;15;15;9
70520;PMS5003;58442;52.716;23.560;2022-10-23T10:01:33;13;13;9
70520;PMS5003;58442;52.716;23.560;2022-10-23T10:03:35;10;10;8
70520;PMS5003;58442;52.716;23.560;2022-10-23T10:05:37;19;15;11
70520;PMS5003;58442;52.716;23.560;2022-10-23T10:07:41;15;15;10
70520;PMS5003;58442;52.716;23.560;2022-10-23T10:09:53;19;16;10
70520;PMS5003;58442;52.716;23.560;2022-10-23T10:12:01;19;19;12
70520;PMS5003;58442;52.716;23.560;2022-10-23T10:18:56;10;10;7
70520;PMS5003;58442;52.716;23.560;2022-10-23T10:26:00;15;14;11
70520;PMS5003;58442;52.716;23.560;2022-10-23T10:28:21;21;21;12
70520;PMS5003;58442;52.716;23.560;2022-10-23T10:35:22;27;20;14
70520;PMS5003;58442;52.716;23.560;2022-10-23T10:37:41;19;18;10
70520;PMS5003;58442;52.716;23.560;2022-10-23T10:39:48;14;14;10
70520;PMS5003;58442;52.716;23.560;2022-10-23T10:46:29;13;13;8
70520;PMS5003;58442;52.716;23.560;2022-10-23T10:48:43;9;9;6
70520;PMS5003;58442;52.716;23.560;2022-10-23T10:55:35;13;12;8
70520;PMS5003;58442;52.716;23.560;2022-10-23T10:57:39;13;13;8
70520;PMS5003;58442;52.716;23.560;2022-10-23T10:59:43;15;15;8
70520;PMS5003;58442;52.716;23.560;2022-10-23T11:01:52;10;9;8
70520;PMS5003;58442;52.716;23.560;2022-10-23T11:04:05;16;16;8
70520;PMS5003;58442;52.716;23.560;2022-10-23T11:06:19;15;14;8
70520;PMS5003;58442;52.716;23.560;2022-10-23T11:10:40;12;12;7
70520;PMS5003;58442;52.716;23.560;2022-10-23T11:12:45;12;12;7
70520;PMS5003;58442;52.716;23.560;2022-10-23T11:14:48;11;11;7
70520;PMS5003;58442;52.716;23.560;2022-10-23T11:16:51;12;12;8
70520;PMS5003;58442;52.716;23.560;2022-10-23T11:36:59;24;24;15
70520;PMS5003;58442;52.716;23.560;2022-10-23T11:41:20;65;50;28
70520;PMS5003;58442;52.716;23.560;2022-10-23T11:45:39;23;23;13
70520;PMS5003;58442;52.716;23.560;2022-10-23T11:47:41;23;23;16
70520;PMS5003;58442;52.716;23.560;2022-10-23T11:49:43;26;25;17
70520;PMS5003;58442;52.716;23.560;2022-10-23T11:51:44;30;30;18
70520;PMS5003;58442;52.716;23.560;2022-10-23T11:53:45;19;18;13
70520;PMS5003;58442;52.716;23.560;2022-10-23T11:56:02;29;27;17
70520;PMS5003;58442;52.716;23.560;2022-10-23T11:58:22;39;34;20
70520;PMS5003;58442;52.716;23.560;2022-10-23T12:00:39;39;35;19
70520;PMS5003;58442;52.716;23.560;2022-10-23T12:03:00;57;48;30
70520;PMS5003;58442;52.716;23.560;2022-10-23T12:05:45;76;65;40
70520;PMS5003;58442;52.716;23.560;2022-10-23T12:09:32;45;39;22
70520;PMS5003;58442;52.716;23.560;2022-10-23T12:11:43;51;43;28
70520;PMS5003;58442;52.716;23.560;2022-10-23T12:13:47;49;42;31
70520;PMS5003;58442;52.716;23.560;2022-10-23T12:15:52;79;74;42
70520;PMS5003;58442;52.716;23.560;2022-10-23T12:17:55;97;91;57
70520;PMS5003;58442;52.716;23.560;2022-10-23T12:22:19;34;32;21
70520;PMS5003;58442;52.716;23.560;2022-10-23T12:38:28;13;13;8
70520;PMS5003;58442;52.716;23.560;2022-10-23T12:40:30;14;14;8
70520;PMS5003;58442;52.716;23.560;2022-10-23T12:42:32;12;12;8
70520;PMS5003;58442;52.716;23.560;2022-10-23T12:44:34;11;11;8
70520;PMS5003;58442;52.716;23.560;2022-10-23T12:46:46;11;11;9
70520;PMS5003;58442;52.716;23.560;2022-10-23T12:48:50;10;10;6
70520;PMS5003;58442;52.716;23.560;2022-10-23T12:50:53;16;16;9
70520;PMS5003;58442;52.716;23.560;2022-10-23T12:52:57;14;13;8
70520;PMS5003;58442;52.716;23.560;2022-10-23T12:57:20;12;10;7
70520;PMS5003;58442;52.716;23.560;2022-10-23T12:59:27;11;11;8
70520;PMS5003;58442;52.716;23.560;2022-10-23T13:01:37;12;12;7
70520;PMS5003;58442;52.716;23.560;2022-10-23T13:03:38;12;12;8
70520;PMS5003;58442;52.716;23.560;2022-10-23T13:05:41;11;11;8
70520;PMS5003;58442;52.716;23.560;2022-10-23T13:07:44;11;11;6
70520;PMS5003;58442;52.716;23.560;2022-10-23T13:09:47;11;11;7
70520;PMS5003;58442;52.716;23.560;2022-10-23T13:11:49;9;9;6
70520;PMS5003;58442;52.716;23.560;2022-10-23T13:13:56;9;9;5
70520;PMS5003;58442;52.716;23.560;2022-10-23T13:15:57;9;9;6
70520;PMS5003;58442;52.716;23.560;2022-10-23T13:18:00;10;9;5
70520;PMS5003;58442;52.716;23.560;2022-10-23T13:22:17;10;10;6
70520;PMS5003;58442;52.716;23.560;2022-10-23T13:24:21;11;11;7
70520;PMS5003;58442;52.716;23.560;2022-10-23T13:28:44;15;15;9
70520;PMS5003;58442;52.716;23.560;2022-10-23T13:30:56;10;10;8
70520;PMS5003;58442;52.716;23.560;2022-10-23T13:32:58;11;11;8
70520;PMS5003;58442;52.716;23.560;2022-10-23T13:35:00;10;10;6
70520;PMS5003;58442;52.716;23.560;2022-10-23T13:37:25;13;13;7
70520;PMS5003;58442;52.716;23.560;2022-10-23T13:39:15;17;17;11
70520;PMS5003;58442;52.716;23.560;2022-10-23T13:41:21;12;12;8
70520;PMS5003;58442;52.716;23.560;2022-10-23T13:43:29;12;11;7
70520;PMS5003;58442;52.716;23.560;2022-10-23T13:45:34;16;15;10
70520;PMS5003;58442;52.716;23.560;2022-10-23T13:47:35;16;16;7
70520;PMS5003;58442;52.716;23.560;2022-10-23T13:49:36;16;16;10
70520;PMS5003;58442;52.716;23.560;2022-10-23T13:51:45;14;14;9
70520;PMS5003;58442;52.716;23.560;2022-10-23T13:53:49;15;15;9
70520;PMS5003;58442;52.716;23.560;2022-10-23T13:55:52;17;17;11
70520;PMS5003;58442;52.716;23.560;2022-10-23T13:57:53;16;14;7
70520;PMS5003;58442;52.716;23.560;2022-10-23T13:59:58;20;15;10
70520;PMS5003;58442;52.716;23.560;2022-10-23T14:01:59;11;11;7
70520;PMS5003;58442;52.716;23.560;2022-10-23T14:04:01;18;18;10
70520;PMS5003;58442;52.716;23.560;2022-10-23T14:06:04;13;13;8
70520;PMS5003;58442;52.716;23.560;2022-10-23T14:08:13;15;15;10
70520;PMS5003;58442;52.716;23.560;2022-10-23T14:10:14;15;15;8
70520;PMS5003;58442;52.716;23.560;2022-10-23T14:12:15;12;12;9
70520;PMS5003;58442;52.716;23.560;2022-10-23T14:14:17;15;15;9
70520;PMS5003;58442;52.716;23.560;2022-10-23T14:16:28;11;11;8
70520;PMS5003;58442;52.716;23.560;2022-10-23T14:18:29;15;14;8
70520;PMS5003;58442;52.716;23.560;2022-10-23T14:20:31;11;11;6
70520;PMS5003;58442;52.716;23.560;2022-10-23T14:22:32;19;19;10
70520;PMS5003;58442;52.716;23.560;2022-10-23T14:24:42;9;9;7
70520;PMS5003;58442;52.716;23.560;2022-10-23T14:26:44;13;13;8
70520;PMS5003;58442;52.716;23.560;2022-10-23T14:28:45;11;11;5
70520;PMS5003;58442;52.716;23.560;2022-10-23T14:30:46;13;13;9
70520;PMS5003;58442;52.716;23.560;2022-10-23T14:32:57;19;18;11
70520;PMS5003;58442;52.716;23.560;2022-10-23T14:34:58;17;17;10
70520;PMS5003;58442;52.716;23.560;2022-10-23T14:37:03;15;15;10
70520;PMS5003;58442;52.716;23.560;2022-10-23T14:39:05;11;11;6
70520;PMS5003;58442;52.716;23.560;2022-10-23T14:41:13;15;15;9
70520;PMS5003;58442;52.716;23.560;2022-10-23T14:43:15;19;19;11
70520;PMS5003;58442;52.716;23.560;2022-10-23T14:45:16;15;15;9
70520;PMS5003;58442;52.716;23.560;2022-10-23T14:47:18;15;15;9
70520;PMS5003;58442;52.716;23.560;2022-10-23T14:49:27;9;9;8
70520;PMS5003;58442;52.716;23.560;2022-10-23T14:51:29;15;15;8
70520;PMS5003;58442;52.716;23.560;2022-10-23T14:53:30;18;18;8
70520;PMS5003;58442;52.716;23.560;2022-10-23T14:55:32;11;11;7
70520;PMS5003;58442;52.716;23.560;2022-10-23T14:57:42;15;15;8
70520;PMS5003;58442;52.716;23.560;2022-10-23T14:59:43;12;12;8
70520;PMS5003;58442;52.716;23.560;2022-10-23T15:01:44;17;15;9
70520;PMS5003;58442;52.716;23.560;2022-10-23T15:03:45;16;15;9
70520;PMS5003;58442;52.716;23.560;2022-10-23T15:05:56;14;14;8
70520;PMS5003;58442;52.716;23.560;2022-10-23T15:07:58;15;15;9
70520;PMS5003;58442;52.716;23.560;2022-10-23T15:10:02;14;14;8
70520;PMS5003;58442;52.716;23.560;2022-10-23T15:12:04;14;14;10
70520;PMS5003;58442;52.716;23.560;2022-10-23T15:14:11;15;15;9
70520;PMS5003;58442;52.716;23.560;2022-10-23T15:16:13;14;14;9
70520;PMS5003;58442;52.716;23.560;2022-10-23T15:18:14;19;19;9
70520;PMS5003;58442;52.716;23.560;2022-10-23T15:20:18;21;21;12
70520;PMS5003;58442;52.716;23.560;2022-10-23T15:22:26;17;17;11
70520;PMS5003;58442;52.716;23.560;2022-10-23T15:24:28;18;18;11
70520;PMS5003;58442;52.716;23.560;2022-10-23T15:26:29;17;17;9
70520;PMS5003;58442;52.716;23.560;2022-10-23T15:28:30;13;13;8